sensor_id;sensor_type;location;lat;lon;timestamp;temperature;humidity
41318;DHT22;27067;51.554;7.026;2023-04-24T00:00:36;15.40;91.50
41318;DHT22;27067;51.554;7.026;2023-04-24T00:03:03;15.40;91.50
41318;DHT22;27067;51.554;7.026;2023-04-24T00:05:29;15.40;91.50
41318;DHT22;27067;51.554;7.026;2023-04-24T00:07:55;15.50;91.50
41318;DHT22;27067;51.554;7.026;2023-04-24T00:10:21;15.40;91.40
41318;DHT22;27067;51.554;7.026;2023-04-24T00:12:47;15.50;91.50
41318;DHT22;27067;51.554;7.026;2023-04-24T00:15:13;15.40;91.40
41318;DHT22;27067;51.554;7.026;2023-04-24T00:17:38;15.40;91.50
41318;DHT22;27067;51.554;7.026;2023-04-24T00:20:05;15.40;91.40
41318;DHT22;27067;51.554;7.026;2023-04-24T00:22:32;15.40;91.40
41318;DHT22;27067;51.554;7.026;2023-04-24T00:24:58;15.40;91.40
41318;DHT22;27067;51.554;7.026;2023-04-24T00:27:24;15.50;91.80
41318;DHT22;27067;51.554;7.026;2023-04-24T00:29:50;15.50;91.50
41318;DHT22;27067;51.554;7.026;2023-04-24T00:32:16;15.50;91.60
41318;DHT22;27067;51.554;7.026;2023-04-24T00:34:42;15.40;91.40
41318;DHT22;27067;51.554;7.026;2023-04-24T00:37:08;15.40;91.40
41318;DHT22;27067;51.554;7.026;2023-04-24T00:39:34;15.50;91.40
41318;DHT22;27067;51.554;7.026;2023-04-24T00:41:59;15.40;91.40
41318;DHT22;27067;51.554;7.026;2023-04-24T00:44:26;15.40;91.40
41318;DHT22;27067;51.554;7.026;2023-04-24T00:46:54;15.50;91.50
41318;DHT22;27067;51.554;7.026;2023-04-24T00:49:23;15.40;91.40
41318;DHT22;27067;51.554;7.026;2023-04-24T00:51:49;15.40;91.50
41318;DHT22;27067;51.554;7.026;2023-04-24T00:54:17;15.40;91.40
41318;DHT22;27067;51.554;7.026;2023-04-24T00:56:44;15.40;91.40
41318;DHT22;27067;51.554;7.026;2023-04-24T00:59:10;15.50;91.40
41318;DHT22;27067;51.554;7.026;2023-04-24T01:01:36;15.40;91.40
41318;DHT22;27067;51.554;7.026;2023-04-24T01:04:02;15.40;91.40
41318;DHT22;27067;51.554;7.026;2023-04-24T01:06:29;15.50;91.40
41318;DHT22;27067;51.554;7.026;2023-04-24T01:08:57;15.40;91.40
41318;DHT22;27067;51.554;7.026;2023-04-24T01:11:24;15.40;91.40
41318;DHT22;27067;51.554;7.026;2023-04-24T01:13:50;15.40;91.40
41318;DHT22;27067;51.554;7.026;2023-04-24T01:16:16;15.40;91.40
41318;DHT22;27067;51.554;7.026;2023-04-24T01:18:43;15.50;91.40
41318;DHT22;27067;51.554;7.026;2023-04-24T01:21:11;15.40;91.40
41318;DHT22;27067;51.554;7.026;2023-04-24T01:23:38;15.40;91.40
41318;DHT22;27067;51.554;7.026;2023-04-24T01:26:04;15.40;91.40
41318;DHT22;27067;51.554;7.026;2023-04-24T01:28:29;15.40;91.40
41318;DHT22;27067;51.554;7.026;2023-04-24T01:30:55;15.40;91.40
41318;DHT22;27067;51.554;7.026;2023-04-24T01:33:21;15.50;91.40
41318;DHT22;27067;51.554;7.026;2023-04-24T01:35:48;15.40;91.40
41318;DHT22;27067;51.554;7.026;2023-04-24T01:38:14;15.50;91.40
41318;DHT22;27067;51.554;7.026;2023-04-24T01:40:40;15.50;91.40
41318;DHT22;27067;51.554;7.026;2023-04-24T01:43:05;15.40;91.40
41318;DHT22;27067;51.554;7.026;2023-04-24T01:45:31;15.40;91.40
41318;DHT22;27067;51.554;7.026;2023-04-24T01:47:57;15.40;91.40
41318;DHT22;27067;51.554;7.026;2023-04-24T01:50:23;15.40;91.40
41318;DHT22;27067;51.554;7.026;2023-04-24T01:52:48;15.50;91.40
41318;DHT22;27067;51.554;7.026;2023-04-24T01:55:14;15.40;91.40
41318;DHT22;27067;51.554;7.026;2023-04-24T01:57:40;15.40;91.40
41318;DHT22;27067;51.554;7.026;2023-04-24T02:00:06;15.40;91.40
41318;DHT22;27067;51.554;7.026;2023-04-24T02:02:33;15.40;91.40
41318;DHT22;27067;51.554;7.026;2023-04-24T02:04:58;15.40;91.40
41318;DHT22;27067;51.554;7.026;2023-04-24T02:07:24;15.40;91.40
41318;DHT22;27067;51.554;7.026;2023-04-24T02:09:50;15.40;91.40
41318;DHT22;27067;51.554;7.026;2023-04-24T02:12:16;15.40;91.40
41318;DHT22;27067;51.554;7.026;2023-04-24T02:14:43;15.40;91.40
41318;DHT22;27067;51.554;7.026;2023-04-24T02:17:09;15.40;91.40
41318;DHT22;27067;51.554;7.026;2023-04-24T02:19:34;15.40;91.40
41318;DHT22;27067;51.554;7.026;2023-04-24T02:22:00;15.40;91.40
41318;DHT22;27067;51.554;7.026;2023-04-24T02:24:26;15.50;91.70
41318;DHT22;27067;51.554;7.026;2023-04-24T02:26:51;15.40;91.40
41318;DHT22;27067;51.554;7.026;2023-04-24T02:29:17;15.50;91.40
41318;DHT22;27067;51.554;7.026;2023-04-24T02:31:43;15.40;91.40
41318;DHT22;27067;51.554;7.026;2023-04-24T02:34:09;15.40;91.40
41318;DHT22;27067;51.554;7.026;2023-04-24T02:36:34;15.40;91.30
41318;DHT22;27067;51.554;7.026;2023-04-24T02:39:00;15.40;91.30
41318;DHT22;27067;51.554;7.026;2023-04-24T02:41:26;15.40;91.40
41318;DHT22;27067;51.554;7.026;2023-04-24T02:43:57;15.40;91.30
41318;DHT22;27067;51.554;7.026;2023-04-24T02:46:23;15.40;91.30
41318;DHT22;27067;51.554;7.026;2023-04-24T02:48:49;15.50;91.40
41318;DHT22;27067;51.554;7.026;2023-04-24T02:51:14;15.40;91.30
41318;DHT22;27067;51.554;7.026;2023-04-24T02:53:40;15.40;91.30
41318;DHT22;27067;51.554;7.026;2023-04-24T02:56:06;15.40;91.30
41318;DHT22;27067;51.554;7.026;2023-04-24T02:58:31;15.40;91.30
41318;DHT22;27067;51.554;7.026;2023-04-24T03:00:57;15.40;91.30
41318;DHT22;27067;51.554;7.026;2023-04-24T03:03:22;15.50;91.30
41318;DHT22;27067;51.554;7.026;2023-04-24T03:05:49;15.40;91.30
41318;DHT22;27067;51.554;7.026;2023-04-24T03:08:15;15.40;91.30
41318;DHT22;27067;51.554;7.026;2023-04-24T03:10:40;15.40;91.30
41318;DHT22;27067;51.554;7.026;2023-04-24T03:13:06;15.50;91.30
41318;DHT22;27067;51.554;7.026;2023-04-24T03:15:31;15.40;91.30
41318;DHT22;27067;51.554;7.026;2023-04-24T03:17:57;15.40;91.30
41318;DHT22;27067;51.554;7.026;2023-04-24T03:20:23;15.40;91.30
41318;DHT22;27067;51.554;7.026;2023-04-24T03:22:49;15.40;91.30
41318;DHT22;27067;51.554;7.026;2023-04-24T03:25:14;15.40;91.30
41318;DHT22;27067;51.554;7.026;2023-04-24T03:27:40;15.40;91.30
41318;DHT22;27067;51.554;7.026;2023-04-24T03:30:07;15.40;91.30
41318;DHT22;27067;51.554;7.026;2023-04-24T03:32:33;15.40;91.30
41318;DHT22;27067;51.554;7.026;2023-04-24T03:34:59;15.40;91.60
41318;DHT22;27067;51.554;7.026;2023-04-24T03:37:25;15.40;91.30
41318;DHT22;27067;51.554;7.026;2023-04-24T03:39:51;15.40;91.30
41318;DHT22;27067;51.554;7.026;2023-04-24T03:42:17;15.40;91.30
41318;DHT22;27067;51.554;7.026;2023-04-24T03:44:43;15.30;91.30
41318;DHT22;27067;51.554;7.026;2023-04-24T03:47:09;15.40;91.30
41318;DHT22;27067;51.554;7.026;2023-04-24T03:49:34;15.40;91.30
41318;DHT22;27067;51.554;7.026;2023-04-24T03:52:00;15.40;91.30
41318;DHT22;27067;51.554;7.026;2023-04-24T03:54:26;15.40;91.30
41318;DHT22;27067;51.554;7.026;2023-04-24T03:56:52;15.40;91.30
41318;DHT22;27067;51.554;7.026;2023-04-24T03:59:18;15.40;91.30
41318;DHT22;27067;51.554;7.026;2023-04-24T04:01:43;15.40;91.30
41318;DHT22;27067;51.554;7.026;2023-04-24T04:04:09;15.40;91.30
41318;DHT22;27067;51.554;7.026;2023-04-24T04:06:35;15.40;91.30
41318;DHT22;27067;51.554;7.026;2023-04-24T04:09:02;15.40;91.30
41318;DHT22;27067;51.554;7.026;2023-04-24T04:11:28;15.40;91.30
41318;DHT22;27067;51.554;7.026;2023-04-24T04:13:54;15.40;91.30
41318;DHT22;27067;51.554;7.026;2023-04-24T04:16:20;15.40;91.30
41318;DHT22;27067;51.554;7.026;2023-04-24T04:18:46;15.40;91.30
41318;DHT22;27067;51.554;7.026;2023-04-24T04:21:12;15.40;91.20
41318;DHT22;27067;51.554;7.026;2023-04-24T04:23:37;15.40;91.20
41318;DHT22;27067;51.554;7.026;2023-04-24T04:26:03;15.40;91.20
41318;DHT22;27067;51.554;7.026;2023-04-24T04:28:30;15.40;91.20
41318;DHT22;27067;51.554;7.026;2023-04-24T04:30:57;15.40;91.20
41318;DHT22;27067;51.554;7.026;2023-04-24T04:33:26;15.40;91.20
41318;DHT22;27067;51.554;7.026;2023-04-24T04:35:52;15.40;91.20
41318;DHT22;27067;51.554;7.026;2023-04-24T04:38:19;15.40;91.20
41318;DHT22;27067;51.554;7.026;2023-04-24T04:40:45;15.40;91.20
41318;DHT22;27067;51.554;7.026;2023-04-24T04:43:11;15.40;91.30
41318;DHT22;27067;51.554;7.026;2023-04-24T04:45:39;15.40;91.20
41318;DHT22;27067;51.554;7.026;2023-04-24T04:48:06;15.40;91.20
41318;DHT22;27067;51.554;7.026;2023-04-24T04:50:34;15.40;91.20
41318;DHT22;27067;51.554;7.026;2023-04-24T04:53:00;15.40;91.20
41318;DHT22;27067;51.554;7.026;2023-04-24T04:55:26;15.40;91.20
41318;DHT22;27067;51.554;7.026;2023-04-24T04:57:52;15.40;91.20
41318;DHT22;27067;51.554;7.026;2023-04-24T05:00:18;15.40;91.20
41318;DHT22;27067;51.554;7.026;2023-04-24T05:02:44;15.40;91.20
41318;DHT22;27067;51.554;7.026;2023-04-24T05:05:10;15.40;91.20
41318;DHT22;27067;51.554;7.026;2023-04-24T05:07:36;15.40;91.20
41318;DHT22;27067;51.554;7.026;2023-04-24T05:10:02;15.40;91.20
41318;DHT22;27067;51.554;7.026;2023-04-24T05:12:28;15.40;91.20
41318;DHT22;27067;51.554;7.026;2023-04-24T05:14:53;15.40;91.20
41318;DHT22;27067;51.554;7.026;2023-04-24T05:17:19;15.40;91.10
41318;DHT22;27067;51.554;7.026;2023-04-24T05:19:45;15.40;91.10
41318;DHT22;27067;51.554;7.026;2023-04-24T05:22:11;15.40;91.10
41318;DHT22;27067;51.554;7.026;2023-04-24T05:24:37;15.40;91.10
41318;DHT22;27067;51.554;7.026;2023-04-24T05:27:03;15.40;91.10
41318;DHT22;27067;51.554;7.026;2023-04-24T05:29:32;15.40;91.10
41318;DHT22;27067;51.554;7.026;2023-04-24T05:31:59;15.40;91.10
41318;DHT22;27067;51.554;7.026;2023-04-24T05:34:25;15.40;91.10
41318;DHT22;27067;51.554;7.026;2023-04-24T05:36:51;15.40;91.10
41318;DHT22;27067;51.554;7.026;2023-04-24T05:39:17;15.40;91.10
41318;DHT22;27067;51.554;7.026;2023-04-24T05:41:43;15.40;91.00
41318;DHT22;27067;51.554;7.026;2023-04-24T05:44:09;15.40;91.10
41318;DHT22;27067;51.554;7.026;2023-04-24T05:46:34;15.40;91.10
41318;DHT22;27067;51.554;7.026;2023-04-24T05:49:01;15.40;91.10
41318;DHT22;27067;51.554;7.026;2023-04-24T05:51:27;15.40;91.10
41318;DHT22;27067;51.554;7.026;2023-04-24T05:53:53;15.40;91.10
41318;DHT22;27067;51.554;7.026;2023-04-24T05:56:19;15.40;91.10
41318;DHT22;27067;51.554;7.026;2023-04-24T05:58:46;15.40;91.10
41318;DHT22;27067;51.554;7.026;2023-04-24T06:01:12;15.40;91.10
41318;DHT22;27067;51.554;7.026;2023-04-24T06:03:38;15.40;91.10
41318;DHT22;27067;51.554;7.026;2023-04-24T06:06:06;15.40;91.10
41318;DHT22;27067;51.554;7.026;2023-04-24T06:08:31;15.40;91.00
41318;DHT22;27067;51.554;7.026;2023-04-24T06:10:58;15.40;91.00
41318;DHT22;27067;51.554;7.026;2023-04-24T06:13:24;15.40;91.00
41318;DHT22;27067;51.554;7.026;2023-04-24T06:15:51;15.40;91.00
41318;DHT22;27067;51.554;7.026;2023-04-24T06:18:17;15.40;91.00
41318;DHT22;27067;51.554;7.026;2023-04-24T06:20:43;15.40;91.00
41318;DHT22;27067;51.554;7.026;2023-04-24T06:23:08;15.40;91.00
41318;DHT22;27067;51.554;7.026;2023-04-24T06:25:34;15.40;91.00
41318;DHT22;27067;51.554;7.026;2023-04-24T06:28:00;15.40;91.00
41318;DHT22;27067;51.554;7.026;2023-04-24T06:30:27;15.40;91.00
41318;DHT22;27067;51.554;7.026;2023-04-24T06:32:53;15.40;91.00
41318;DHT22;27067;51.554;7.026;2023-04-24T06:35:19;15.40;91.00
41318;DHT22;27067;51.554;7.026;2023-04-24T06:37:45;15.40;91.00
41318;DHT22;27067;51.554;7.026;2023-04-24T06:40:11;15.40;90.90
41318;DHT22;27067;51.554;7.026;2023-04-24T06:42:37;15.40;91.00
41318;DHT22;27067;51.554;7.026;2023-04-24T06:45:03;15.40;91.00
41318;DHT22;27067;51.554;7.026;2023-04-24T06:47:29;15.40;91.00
41318;DHT22;27067;51.554;7.026;2023-04-24T06:49:55;15.40;91.00
41318;DHT22;27067;51.554;7.026;2023-04-24T06:52:20;15.40;90.90
41318;DHT22;27067;51.554;7.026;2023-04-24T06:54:46;15.40;90.90
41318;DHT22;27067;51.554;7.026;2023-04-24T06:57:12;15.40;90.90
41318;DHT22;27067;51.554;7.026;2023-04-24T06:59:38;15.40;90.90
41318;DHT22;27067;51.554;7.026;2023-04-24T07:02:04;15.20;90.90
41318;DHT22;27067;51.554;7.026;2023-04-24T07:04:30;15.40;90.90
41318;DHT22;27067;51.554;7.026;2023-04-24T07:06:56;15.40;90.90
41318;DHT22;27067;51.554;7.026;2023-04-24T07:09:24;15.40;90.90
41318;DHT22;27067;51.554;7.026;2023-04-24T07:11:54;15.40;90.90
41318;DHT22;27067;51.554;7.026;2023-04-24T07:14:20;15.40;90.90
41318;DHT22;27067;51.554;7.026;2023-04-24T07:16:46;15.40;90.90
41318;DHT22;27067;51.554;7.026;2023-04-24T07:19:13;15.40;90.90
41318;DHT22;27067;51.554;7.026;2023-04-24T07:21:39;15.40;90.90
41318;DHT22;27067;51.554;7.026;2023-04-24T07:24:05;15.40;90.90
41318;DHT22;27067;51.554;7.026;2023-04-24T07:26:34;15.40;90.90
41318;DHT22;27067;51.554;7.026;2023-04-24T07:29:00;15.40;90.90
41318;DHT22;27067;51.554;7.026;2023-04-24T07:31:26;15.40;90.90
41318;DHT22;27067;51.554;7.026;2023-04-24T07:33:52;15.40;90.90
41318;DHT22;27067;51.554;7.026;2023-04-24T07:36:17;15.40;90.90
41318;DHT22;27067;51.554;7.026;2023-04-24T07:38:45;15.40;90.90
41318;DHT22;27067;51.554;7.026;2023-04-24T07:41:11;15.40;90.90
41318;DHT22;27067;51.554;7.026;2023-04-24T07:43:37;15.40;90.90
41318;DHT22;27067;51.554;7.026;2023-04-24T07:46:02;15.40;90.90
41318;DHT22;27067;51.554;7.026;2023-04-24T07:48:28;15.40;90.90
41318;DHT22;27067;51.554;7.026;2023-04-24T07:50:54;15.40;90.90
41318;DHT22;27067;51.554;7.026;2023-04-24T07:53:19;15.40;90.90
41318;DHT22;27067;51.554;7.026;2023-04-24T07:55:45;15.40;90.90
41318;DHT22;27067;51.554;7.026;2023-04-24T07:58:11;15.40;90.90
41318;DHT22;27067;51.554;7.026;2023-04-24T08:00:37;15.40;90.90
41318;DHT22;27067;51.554;7.026;2023-04-24T08:03:02;15.40;90.90
41318;DHT22;27067;51.554;7.026;2023-04-24T08:05:28;15.40;90.90
41318;DHT22;27067;51.554;7.026;2023-04-24T08:07:54;15.40;91.10
41318;DHT22;27067;51.554;7.026;2023-04-24T08:10:23;15.40;90.90
41318;DHT22;27067;51.554;7.026;2023-04-24T08:12:49;15.40;90.90
41318;DHT22;27067;51.554;7.026;2023-04-24T08:15:15;15.40;90.90
41318;DHT22;27067;51.554;7.026;2023-04-24T08:17:41;15.40;90.90
41318;DHT22;27067;51.554;7.026;2023-04-24T08:20:09;15.40;90.90
41318;DHT22;27067;51.554;7.026;2023-04-24T08:22:39;15.40;91.10
41318;DHT22;27067;51.554;7.026;2023-04-24T08:25:06;15.40;90.90
41318;DHT22;27067;51.554;7.026;2023-04-24T08:27:32;15.40;90.80
41318;DHT22;27067;51.554;7.026;2023-04-24T08:29:57;15.40;90.80
41318;DHT22;27067;51.554;7.026;2023-04-24T08:32:24;15.40;90.80
41318;DHT22;27067;51.554;7.026;2023-04-24T08:34:50;15.40;90.80
41318;DHT22;27067;51.554;7.026;2023-04-24T08:37:18;15.30;90.80
41318;DHT22;27067;51.554;7.026;2023-04-24T08:39:44;15.40;90.90
41318;DHT22;27067;51.554;7.026;2023-04-24T08:42:13;15.30;90.80
41318;DHT22;27067;51.554;7.026;2023-04-24T08:44:42;15.30;90.80
41318;DHT22;27067;51.554;7.026;2023-04-24T08:47:08;15.30;90.90
41318;DHT22;27067;51.554;7.026;2023-04-24T08:49:36;15.40;90.80
41318;DHT22;27067;51.554;7.026;2023-04-24T08:52:05;15.30;90.80
41318;DHT22;27067;51.554;7.026;2023-04-24T08:54:33;15.30;90.80
41318;DHT22;27067;51.554;7.026;2023-04-24T08:57:00;15.40;90.80
41318;DHT22;27067;51.554;7.026;2023-04-24T08:59:52;15.40;90.80
41318;DHT22;27067;51.554;7.026;2023-04-24T09:02:22;15.30;90.80
41318;DHT22;27067;51.554;7.026;2023-04-24T09:04:48;15.30;90.80
41318;DHT22;27067;51.554;7.026;2023-04-24T09:07:16;15.30;90.80
41318;DHT22;27067;51.554;7.026;2023-04-24T09:09:45;14.90;90.90
41318;DHT22;27067;51.554;7.026;2023-04-24T09:12:11;15.30;90.80
41318;DHT22;27067;51.554;7.026;2023-04-24T09:14:38;15.40;90.80
41318;DHT22;27067;51.554;7.026;2023-04-24T09:17:08;15.30;90.80
41318;DHT22;27067;51.554;7.026;2023-04-24T09:19:34;15.30;91.00
41318;DHT22;27067;51.554;7.026;2023-04-24T09:22:07;15.70;91.20
41318;DHT22;27067;51.554;7.026;2023-04-24T09:24:34;15.30;91.00
41318;DHT22;27067;51.554;7.026;2023-04-24T09:27:04;15.30;90.90
41318;DHT22;27067;51.554;7.026;2023-04-24T09:29:29;15.30;90.80
41318;DHT22;27067;51.554;7.026;2023-04-24T09:31:57;15.30;90.80
41318;DHT22;27067;51.554;7.026;2023-04-24T09:34:24;15.30;90.80
41318;DHT22;27067;51.554;7.026;2023-04-24T09:36:51;15.40;90.80
41318;DHT22;27067;51.554;7.026;2023-04-24T09:39:17;15.30;90.80
41318;DHT22;27067;51.554;7.026;2023-04-24T09:41:51;15.40;90.80
41318;DHT22;27067;51.554;7.026;2023-04-24T09:44:21;15.30;90.90
41318;DHT22;27067;51.554;7.026;2023-04-24T09:49:28;15.30;90.80
41318;DHT22;27067;51.554;7.026;2023-04-24T09:52:11;15.30;90.80
41318;DHT22;27067;51.554;7.026;2023-04-24T09:54:37;15.30;90.80
41318;DHT22;27067;51.554;7.026;2023-04-24T09:57:04;15.30;90.80
41318;DHT22;27067;51.554;7.026;2023-04-24T09:59:50;15.30;90.80
41318;DHT22;27067;51.554;7.026;2023-04-24T10:02:27;15.30;90.80
41318;DHT22;27067;51.554;7.026;2023-04-24T10:05:05;15.30;90.80
41318;DHT22;27067;51.554;7.026;2023-04-24T10:07:33;15.30;90.80
41318;DHT22;27067;51.554;7.026;2023-04-24T10:09:59;15.30;90.90
41318;DHT22;27067;51.554;7.026;2023-04-24T10:12:25;15.30;90.80
41318;DHT22;27067;51.554;7.026;2023-04-24T10:14:52;15.30;90.80
41318;DHT22;27067;51.554;7.026;2023-04-24T10:17:18;15.30;90.80
41318;DHT22;27067;51.554;7.026;2023-04-24T10:19:47;15.30;90.80
41318;DHT22;27067;51.554;7.026;2023-04-24T10:22:14;15.30;90.80
41318;DHT22;27067;51.554;7.026;2023-04-24T10:24:41;15.30;90.80
41318;DHT22;27067;51.554;7.026;2023-04-24T10:27:08;15.30;90.80
41318;DHT22;27067;51.554;7.026;2023-04-24T10:29:35;15.30;90.80
41318;DHT22;27067;51.554;7.026;2023-04-24T10:32:01;15.30;90.80
41318;DHT22;27067;51.554;7.026;2023-04-24T10:34:27;15.30;90.80
41318;DHT22;27067;51.554;7.026;2023-04-24T10:36:55;15.30;90.80
41318;DHT22;27067;51.554;7.026;2023-04-24T10:39:22;15.30;90.80
41318;DHT22;27067;51.554;7.026;2023-04-24T10:41:48;15.30;90.70
41318;DHT22;27067;51.554;7.026;2023-04-24T10:44:15;15.30;90.70
41318;DHT22;27067;51.554;7.026;2023-04-24T10:46:46;15.30;90.70
41318;DHT22;27067;51.554;7.026;2023-04-24T10:49:12;15.30;90.70
41318;DHT22;27067;51.554;7.026;2023-04-24T10:51:52;15.30;90.70
41318;DHT22;27067;51.554;7.026;2023-04-24T10:54:27;15.30;90.70
41318;DHT22;27067;51.554;7.026;2023-04-24T10:56:55;15.30;90.70
41318;DHT22;27067;51.554;7.026;2023-04-24T10:59:39;15.30;90.70
41318;DHT22;27067;51.554;7.026;2023-04-24T11:02:07;15.30;90.70
41318;DHT22;27067;51.554;7.026;2023-04-24T11:04:33;15.30;90.80
41318;DHT22;27067;51.554;7.026;2023-04-24T11:07:01;15.30;90.70
41318;DHT22;27067;51.554;7.026;2023-04-24T11:09:30;15.30;90.80
41318;DHT22;27067;51.554;7.026;2023-04-24T11:12:07;15.30;90.70
41318;DHT22;27067;51.554;7.026;2023-04-24T11:17:29;15.30;90.70
41318;DHT22;27067;51.554;7.026;2023-04-24T11:20:01;15.30;90.70
41318;DHT22;27067;51.554;7.026;2023-04-24T11:22:28;15.30;90.80
41318;DHT22;27067;51.554;7.026;2023-04-24T11:24:55;15.30;90.70
41318;DHT22;27067;51.554;7.026;2023-04-24T11:27:22;15.30;90.70
41318;DHT22;27067;51.554;7.026;2023-04-24T11:29:51;15.30;90.70
41318;DHT22;27067;51.554;7.026;2023-04-24T11:32:28;15.30;90.70
41318;DHT22;27067;51.554;7.026;2023-04-24T11:37:38;15.30;90.70
41318;DHT22;27067;51.554;7.026;2023-04-24T11:40:07;15.30;90.70
41318;DHT22;27067;51.554;7.026;2023-04-24T11:42:38;15.30;90.70
41318;DHT22;27067;51.554;7.026;2023-04-24T11:45:11;15.30;90.70
41318;DHT22;27067;51.554;7.026;2023-04-24T11:47:38;15.30;90.70
41318;DHT22;27067;51.554;7.026;2023-04-24T11:50:06;15.30;90.70
41318;DHT22;27067;51.554;7.026;2023-04-24T11:52:32;15.30;90.70
41318;DHT22;27067;51.554;7.026;2023-04-24T11:54:59;15.30;90.70
41318;DHT22;27067;51.554;7.026;2023-04-24T11:57:25;15.30;90.70
41318;DHT22;27067;51.554;7.026;2023-04-24T12:00:02;15.30;90.70
41318;DHT22;27067;51.554;7.026;2023-04-24T12:02:29;15.30;90.70
41318;DHT22;27067;51.554;7.026;2023-04-24T12:04:55;15.30;90.70
41318;DHT22;27067;51.554;7.026;2023-04-24T12:07:22;15.30;90.70
41318;DHT22;27067;51.554;7.026;2023-04-24T12:09:54;15.30;90.70
41318;DHT22;27067;51.554;7.026;2023-04-24T12:12:20;15.30;90.70
41318;DHT22;27067;51.554;7.026;2023-04-24T12:14:52;15.30;90.70
41318;DHT22;27067;51.554;7.026;2023-04-24T12:17:23;15.30;90.70
41318;DHT22;27067;51.554;7.026;2023-04-24T12:19:49;15.30;90.70
41318;DHT22;27067;51.554;7.026;2023-04-24T12:22:16;15.30;90.70
41318;DHT22;27067;51.554;7.026;2023-04-24T12:24:59;15.30;90.70
41318;DHT22;27067;51.554;7.026;2023-04-24T12:27:28;15.30;90.70
41318;DHT22;27067;51.554;7.026;2023-04-24T12:29:56;15.30;90.70
41318;DHT22;27067;51.554;7.026;2023-04-24T12:32:22;15.30;90.70
41318;DHT22;27067;51.554;7.026;2023-04-24T12:34:49;15.30;90.70
41318;DHT22;27067;51.554;7.026;2023-04-24T12:37:16;15.30;90.70
41318;DHT22;27067;51.554;7.026;2023-04-24T12:40:07;15.30;90.70
41318;DHT22;27067;51.554;7.026;2023-04-24T12:42:34;15.30;90.70
41318;DHT22;27067;51.554;7.026;2023-04-24T12:45:03;15.30;90.70
41318;DHT22;27067;51.554;7.026;2023-04-24T12:47:29;15.30;90.70
41318;DHT22;27067;51.554;7.026;2023-04-24T12:49:55;15.20;90.70
41318;DHT22;27067;51.554;7.026;2023-04-24T12:52:26;15.30;90.70
41318;DHT22;27067;51.554;7.026;2023-04-24T12:54:56;15.20;90.70
41318;DHT22;27067;51.554;7.026;2023-04-24T12:57:28;15.30;90.70
41318;DHT22;27067;51.554;7.026;2023-04-24T12:59:55;15.30;90.70
41318;DHT22;27067;51.554;7.026;2023-04-24T13:02:24;15.30;90.70
41318;DHT22;27067;51.554;7.026;2023-04-24T13:04:51;15.20;90.70
41318;DHT22;27067;51.554;7.026;2023-04-24T13:07:17;15.20;90.70
41318;DHT22;27067;51.554;7.026;2023-04-24T13:09:44;15.20;90.70
41318;DHT22;27067;51.554;7.026;2023-04-24T13:12:10;15.30;90.70
41318;DHT22;27067;51.554;7.026;2023-04-24T13:14:37;15.30;90.70
41318;DHT22;27067;51.554;7.026;2023-04-24T13:17:02;15.30;90.70
41318;DHT22;27067;51.554;7.026;2023-04-24T13:19:28;15.30;90.70
41318;DHT22;27067;51.554;7.026;2023-04-24T13:21:56;15.30;90.70
41318;DHT22;27067;51.554;7.026;2023-04-24T13:24:23;15.30;90.70
41318;DHT22;27067;51.554;7.026;2023-04-24T13:26:52;15.30;90.70
41318;DHT22;27067;51.554;7.026;2023-04-24T13:29:19;15.20;90.70
41318;DHT22;27067;51.554;7.026;2023-04-24T13:31:46;15.20;90.70
41318;DHT22;27067;51.554;7.026;2023-04-24T13:34:13;15.20;90.70
41318;DHT22;27067;51.554;7.026;2023-04-24T13:36:38;15.20;90.70
41318;DHT22;27067;51.554;7.026;2023-04-24T13:39:05;15.20;90.70
41318;DHT22;27067;51.554;7.026;2023-04-24T13:41:32;15.20;90.70
41318;DHT22;27067;51.554;7.026;2023-04-24T13:43:58;15.20;90.70
41318;DHT22;27067;51.554;7.026;2023-04-24T13:46:24;15.20;90.70
41318;DHT22;27067;51.554;7.026;2023-04-24T13:48:50;15.20;91.00
41318;DHT22;27067;51.554;7.026;2023-04-24T13:51:16;15.20;90.70
41318;DHT22;27067;51.554;7.026;2023-04-24T13:53:41;15.20;90.60
41318;DHT22;27067;51.554;7.026;2023-04-24T13:56:07;15.20;90.70
41318;DHT22;27067;51.554;7.026;2023-04-24T13:58:34;15.20;90.70
41318;DHT22;27067;51.554;7.026;2023-04-24T14:01:02;15.20;90.70
41318;DHT22;27067;51.554;7.026;2023-04-24T14:03:28;15.20;90.70
41318;DHT22;27067;51.554;7.026;2023-04-24T14:05:54;15.20;90.60
41318;DHT22;27067;51.554;7.026;2023-04-24T14:08:20;15.20;90.60
41318;DHT22;27067;51.554;7.026;2023-04-24T14:10:46;15.20;90.60
41318;DHT22;27067;51.554;7.026;2023-04-24T14:13:12;15.20;90.70
41318;DHT22;27067;51.554;7.026;2023-04-24T14:15:38;15.20;90.70
41318;DHT22;27067;51.554;7.026;2023-04-24T14:18:03;15.20;90.70
41318;DHT22;27067;51.554;7.026;2023-04-24T14:20:30;15.20;90.70
41318;DHT22;27067;51.554;7.026;2023-04-24T14:22:56;15.20;90.70
41318;DHT22;27067;51.554;7.026;2023-04-24T14:25:24;15.20;90.70
41318;DHT22;27067;51.554;7.026;2023-04-24T14:27:50;15.20;90.70
41318;DHT22;27067;51.554;7.026;2023-04-24T14:30:16;15.20;90.70
41318;DHT22;27067;51.554;7.026;2023-04-24T14:32:41;15.20;90.70
41318;DHT22;27067;51.554;7.026;2023-04-24T14:35:07;15.20;90.70
41318;DHT22;27067;51.554;7.026;2023-04-24T14:37:33;15.20;90.70
41318;DHT22;27067;51.554;7.026;2023-04-24T14:39:59;15.20;90.70
41318;DHT22;27067;51.554;7.026;2023-04-24T14:42:25;15.20;90.70
41318;DHT22;27067;51.554;7.026;2023-04-24T14:44:51;15.20;90.70
41318;DHT22;27067;51.554;7.026;2023-04-24T14:47:16;15.20;90.70
41318;DHT22;27067;51.554;7.026;2023-04-24T14:49:43;15.20;90.70
41318;DHT22;27067;51.554;7.026;2023-04-24T14:52:10;15.20;90.70
41318;DHT22;27067;51.554;7.026;2023-04-24T14:54:35;15.20;90.70
41318;DHT22;27067;51.554;7.026;2023-04-24T14:57:01;15.20;90.70
41318;DHT22;27067;51.554;7.026;2023-04-24T14:59:28;15.20;90.70
41318;DHT22;27067;51.554;7.026;2023-04-24T15:01:54;15.20;90.70
41318;DHT22;27067;51.554;7.026;2023-04-24T15:04:24;15.10;90.70
41318;DHT22;27067;51.554;7.026;2023-04-24T15:06:51;15.20;90.70
41318;DHT22;27067;51.554;7.026;2023-04-24T15:09:17;15.20;90.70
41318;DHT22;27067;51.554;7.026;2023-04-24T15:11:43;15.20;90.70
41318;DHT22;27067;51.554;7.026;2023-04-24T15:14:08;15.20;90.70
41318;DHT22;27067;51.554;7.026;2023-04-24T15:16:34;15.20;90.70
41318;DHT22;27067;51.554;7.026;2023-04-24T15:19:00;15.20;90.70
41318;DHT22;27067;51.554;7.026;2023-04-24T15:21:26;15.20;90.70
41318;DHT22;27067;51.554;7.026;2023-04-24T15:23:52;15.20;90.70
41318;DHT22;27067;51.554;7.026;2023-04-24T15:26:18;15.20;90.70
41318;DHT22;27067;51.554;7.026;2023-04-24T15:28:44;15.20;90.70
41318;DHT22;27067;51.554;7.026;2023-04-24T15:31:12;15.20;90.70
41318;DHT22;27067;51.554;7.026;2023-04-24T15:33:38;15.10;90.70
41318;DHT22;27067;51.554;7.026;2023-04-24T15:36:04;15.20;90.70